Time,TemperatureF,DewpointF,PressureIn,WindDirection,WindDirectionDegrees,WindSpeedMPH,WindSpeedGustMPH,Humidity,HourlyPrecipIn,Conditions,Clouds,dailyrainin,SoftwareType,DateUTC
2013-02-14 00:02:00,34.0,29.0,29.94,NNE,26,1.0,8.0,83,0.00,,,0.24,,2013-02-14 05:02:00,
2013-02-14 00:11:00,34.0,29.0,29.94,NNE,26,1.0,8.0,83,0.00,,,0.24,,2013-02-14 05:11:00,
2013-02-14 00:22:00,34.0,29.0,29.94,NNE,26,1.0,8.0,83,0.00,,,0.24,,2013-02-14 05:22:00,
2013-02-14 00:32:00,34.0,29.0,29.94,NNE,26,1.0,8.0,83,0.00,,,0.24,,2013-02-14 05:32:00,
2013-02-14 01:02:00,33.0,28.0,29.96,SSE,153,7.0,15.0,82,0.00,,,0.24,,2013-02-14 06:02:00,
2013-02-14 01:11:00,33.0,28.0,29.96,SSE,153,7.0,15.0,82,0.00,,,0.24,,2013-02-14 06:11:00,
2013-02-14 01:22:00,33.0,28.0,29.96,SSE,153,7.0,15.0,82,0.00,,,0.24,,2013-02-14 06:22:00,
2013-02-14 01:32:00,33.0,28.0,29.96,SSE,153,7.0,15.0,82,0.00,,,0.24,,2013-02-14 06:32:00,
2013-02-14 02:01:00,33.0,28.0,29.97,NE,39,0.0,3.0,80,0.00,,,0.22,,2013-02-14 07:01:00,
2013-02-14 02:11:00,33.0,28.0,29.97,NE,39,0.0,3.0,80,0.00,,,0.22,,2013-02-14 07:11:00,
2013-02-14 02:21:00,33.0,28.0,29.97,NE,39,0.0,3.0,80,0.00,,,0.22,,2013-02-14 07:21:00,
2013-02-14 02:32:00,33.0,28.0,29.97,NE,39,0.0,3.0,80,0.00,,,0.22,,2013-02-14 07:32:00,
2013-02-14 09:00:00,28.0,25.0,30.07,NW,315,0.0,1.0,89,0.00,,,0.11,,2013-02-14 14:00:00,
2013-02-14 09:22:00,28.0,25.0,30.07,NW,315,0.0,1.0,89,0.00,,,0.11,,2013-02-14 14:22:00,
2013-02-14 09:32:00,28.0,25.0,30.07,NW,315,0.0,1.0,89,0.00,,,0.11,,2013-02-14 14:32:00,
2013-02-14 09:42:00,28.0,25.0,30.07,NW,315,0.0,1.0,89,0.00,,,0.11,,2013-02-14 14:42:00,
2013-02-14 09:52:00,28.0,25.0,30.07,NW,315,0.0,1.0,89,0.00,,,0.11,,2013-02-14 14:52:00,
2013-02-14 11:00:00,35.0,28.0,30.06,NNW,330,0.0,2.0,75,0.00,,,0.11,,2013-02-14 16:00:00,
2013-02-14 11:22:00,35.0,28.0,30.06,NNW,330,0.0,2.0,75,0.00,,,0.11,,2013-02-14 16:22:00,
2013-02-14 11:32:00,35.0,28.0,30.06,NNW,330,0.0,2.0,75,0.00,,,0.11,,2013-02-14 16:32:00,
2013-02-14 11:42:00,35.0,28.0,30.06,NNW,330,0.0,2.0,75,0.00,,,0.11,,2013-02-14 16:42:00,
2013-02-14 11:52:00,35.0,28.0,30.06,NNW,330,0.0,2.0,75,0.00,,,0.11,,2013-02-14 16:52:00,
2013-02-14 13:00:00,45.0,23.0,30.03,West,271,2.0,4.0,41,0.00,,,0.11,,2013-02-14 18:00:00,
2013-02-14 13:23:00,45.0,23.0,30.03,West,271,2.0,4.0,41,0.00,,,0.11,,2013-02-14 18:23:00,
2013-02-14 13:32:00,45.0,23.0,30.03,West,271,2.0,4.0,41,0.00,,,0.11,,2013-02-14 18:32:00,
2013-02-14 13:42:00,45.0,23.0,30.03,West,271,2.0,4.0,41,0.00,,,0.11,,2013-02-14 18:42:00,
2013-02-14 13:52:00,45.0,23.0,30.03,West,271,2.0,4.0,41,0.00,,,0.11,,2013-02-14 18:52:00,
2013-02-14 15:00:00,48.0,22.0,30.03,NE,55,9.0,16.0,35,0.00,,,0.11,,2013-02-14 20:00:00,
2013-02-14 15:11:00,48.0,22.0,30.03,NE,55,9.0,16.0,35,0.00,,,0.11,,2013-02-14 20:11:00,
2013-02-14 15:22:00,48.0,22.0,30.03,NE,55,9.0,16.0,35,0.00,,,0.11,,2013-02-14 20:22:00,
2013-02-14 15:32:00,48.0,22.0,30.03,NE,55,9.0,16.0,35,0.00,,,0.11,,2013-02-14 20:32:00,
2013-02-14 15:42:00,48.0,22.0,30.03,NE,55,9.0,16.0,35,0.00,,,0.11,,2013-02-14 20:42:00,
2013-02-14 15:52:00,48.0,22.0,30.03,NE,55,9.0,16.0,35,0.00,,,0.11,,2013-02-14 20:52:00,
2013-02-14 17:00:00,49.0,26.0,30.04,ESE,103,1.0,7.0,40,0.00,,,0.05,,2013-02-14 22:00:00,
2013-02-14 17:11:00,49.0,26.0,30.04,ESE,103,1.0,7.0,40,0.00,,,0.05,,2013-02-14 22:11:00,
2013-02-14 17:21:00,49.0,26.0,30.04,ESE,103,1.0,7.0,40,0.00,,,0.05,,2013-02-14 22:21:00,
2013-02-14 17:32:00,49.0,26.0,30.04,ESE,103,1.0,7.0,40,0.00,,,0.05,,2013-02-14 22:32:00,
2013-02-14 17:42:00,49.0,26.0,30.04,ESE,103,1.0,7.0,40,0.00,,,0.05,,2013-02-14 22:42:00,
2013-02-14 17:52:00,49.0,26.0,30.04,ESE,103,1.0,7.0,40,0.00,,,0.05,,2013-02-14 22:52:00,
2013-02-14 19:00:00,42.0,27.0,30.06,East,97,4.0,5.0,54,0.00,,,0.00,,2013-02-15 00:00:00,
2013-02-14 19:22:00,42.0,27.0,30.06,East,97,4.0,5.0,54,0.00,,,0.00,,2013-02-15 00:22:00,
2013-02-14 19:32:00,42.0,27.0,30.06,East,97,4.0,5.0,54,0.00,,,0.00,,2013-02-15 00:32:00,
2013-02-14 19:42:00,42.0,27.0,30.06,East,97,4.0,5.0,54,0.00,,,0.00,,2013-02-15 00:42:00,
2013-02-14 19:52:00,42.0,27.0,30.06,East,97,4.0,5.0,54,0.00,,,0.00,,2013-02-15 00:52:00,
2013-02-14 21:21:00,38.0,28.0,30.07,NW,316,1.0,4.0,68,0.00,,,0.00,,2013-02-15 02:21:00,
2013-02-14 21:30:00,38.0,29.0,30.07,NW,322,2.0,5.0,69,0.00,,,0.00,,2013-02-15 02:30:00,
2013-02-14 21:32:00,38.0,28.0,30.07,NW,316,1.0,4.0,68,0.00,,,0.00,,2013-02-15 02:32:00,
2013-02-14 21:42:00,38.0,28.0,30.07,NW,316,1.0,4.0,68,0.00,,,0.00,,2013-02-15 02:42:00,
2013-02-14 21:52:00,38.0,29.0,30.07,NW,322,2.0,5.0,69,0.00,,,0.00,,2013-02-15 02:52:00,
2013-02-14 22:02:00,38.0,29.0,30.07,NW,322,2.0,5.0,69,0.00,,,0.00,,2013-02-15 03:02:00,
2013-02-14 22:11:00,38.0,29.0,30.07,NW,322,2.0,5.0,69,0.00,,,0.00,,2013-02-15 03:11:00,
2013-02-14 22:22:00,38.0,29.0,30.07,NW,322,2.0,5.0,69,0.00,,,0.00,,2013-02-15 03:22:00,
2013-02-14 23:52:00,34.0,29.0,30.09,NW,320,1.0,3.0,81,0.00,,,0.00,,2013-02-15 04:52:00,